Time;durP1;ratioP1;P1;durP2;ratioP2;P2;SDS_P1;SDS_P2;PMS_P1;PMS_P2;Temp;Humidity;BMP_temperature;BMP_pressure;BME280_temperature;BME280_humidity;BME280_pressure;Samples;Min_cycle;Max_cycle;Signal;HPM_P1;HPM_P2
2024/01/24 00:00:13;;;;;;;2.47;2.27;;;;;;;12.36;nan;100660.72;4929770;28;20218;-79
2024/01/24 00:02:38;;;;;;;3.30;0.83;;;;;;;12.34;nan;100652.94;4925988;29;20264;-79
2024/01/24 00:05:04;;;;;;;1.67;1.30;;;;;;;12.39;nan;100642.13;4929344;28;20917;-79
2024/01/24 00:07:31;;;;;;;6.03;1.33;;;;;;;12.42;nan;100641.94;4928246;29;20826;-79
2024/01/24 00:09:56;;;;;;;2.00;1.33;;;;;;;12.44;nan;100640.09;4926366;28;20203;-79
2024/01/24 00:12:22;;;;;;;2.80;1.00;;;;;;;12.47;nan;100650.44;4923707;28;20921;-79
2024/01/24 00:14:47;;;;;;;5.43;1.00;;;;;;;12.48;nan;100641.63;4925430;29;20353;-78
2024/01/24 00:17:12;;;;;;;2.03;0.93;;;;;;;12.46;nan;100630.31;4928350;28;20301;-79
2024/01/24 00:19:38;;;;;;;3.40;1.10;;;;;;;12.47;nan;100631.16;4927459;29;20226;-79
2024/01/24 00:22:03;;;;;;;1.60;1.30;;;;;;;12.45;nan;100627.75;4924047;29;22934;-79
2024/01/24 00:24:29;;;;;;;5.23;1.27;;;;;;;12.47;nan;100623.25;4927329;28;20229;-79
2024/01/24 00:26:54;;;;;;;1.90;0.80;;;;;;;12.49;nan;100622.25;4924495;29;20207;-79
2024/01/24 00:29:20;;;;;;;5.30;1.73;;;;;;;12.46;nan;100606.59;4924830;29;20245;-79
2024/01/24 00:31:48;;;;;;;6.37;1.00;;;;;;;12.47;nan;100616.19;4924135;29;20286;-78
2024/01/24 00:34:13;;;;;;;2.50;0.85;;;;;;;12.50;nan;100602.00;4925417;28;20310;-79
2024/01/24 00:36:39;;;;;;;4.60;1.00;;;;;;;12.49;nan;100590.63;4928804;29;20266;-79
2024/01/24 00:39:07;;;;;;;5.33;1.33;;;;;;;12.51;nan;100598.44;4927863;28;20220;-79
2024/01/24 00:41:32;;;;;;;3.17;1.15;;;;;;;12.53;nan;100594.78;4926556;28;20659;-78
2024/01/24 00:43:57;;;;;;;3.30;1.10;;;;;;;12.54;nan;100599.13;4923982;29;22006;-78
2024/01/24 00:46:23;;;;;;;3.07;0.90;;;;;;;12.56;nan;100599.91;4923824;29;20203;-79
2024/01/24 00:48:48;;;;;;;1.23;0.90;;;;;;;12.61;nan;100602.28;4926283;28;20271;-78
2024/01/24 00:51:14;;;;;;;3.03;0.80;;;;;;;12.65;nan;100600.31;4926157;28;20233;-79
2024/01/24 00:53:40;;;;;;;6.43;1.20;;;;;;;12.66;nan;100586.19;4922584;29;20227;-78
2024/01/24 00:56:05;;;;;;;3.92;1.15;;;;;;;12.65;nan;100584.50;4972462;23;20511;-82
2024/01/24 00:58:31;;;;;;;1.23;0.80;;;;;;;12.63;nan;100577.50;4965006;28;20208;-82
2024/01/24 01:00:58;;;;;;;0.90;0.80;;;;;;;12.64;nan;100581.00;4984143;28;20244;-81
2024/01/24 01:03:26;;;;;;;2.22;0.75;;;;;;;12.70;nan;100583.28;4983383;28;20486;-81
2024/01/24 01:05:55;;;;;;;1.10;1.00;;;;;;;12.71;nan;100590.25;4988168;28;20213;-82
2024/01/24 01:08:21;;;;;;;3.25;1.10;;;;;;;12.71;nan;100589.41;4984474;28;20448;-82
2024/01/24 01:10:46;;;;;;;1.70;1.00;;;;;;;12.77;nan;100578.50;4986485;28;20212;-81
2024/01/24 01:13:11;;;;;;;1.40;0.97;;;;;;;12.84;nan;100583.34;4983584;28;20256;-82
2024/01/24 01:15:37;;;;;;;2.47;0.93;;;;;;;12.89;nan;100577.81;4984755;28;20267;-81
2024/01/24 01:18:06;;;;;;;2.03;0.80;;;;;;;12.89;nan;100575.19;4982486;28;20204;-81
2024/01/24 01:20:32;;;;;;;2.55;0.90;;;;;;;12.91;nan;100580.34;4987706;28;20816;-81
2024/01/24 01:22:57;;;;;;;2.10;0.80;;;;;;;12.94;nan;100570.50;4983184;28;20866;-81
2024/01/24 01:25:23;;;;;;;5.13;1.87;;;;;;;13.01;nan;100576.25;4983519;28;20639;-82
2024/01/24 01:27:48;;;;;;;5.23;1.40;;;;;;;13.06;nan;100575.03;4986278;28;20193;-81
2024/01/24 01:30:17;;;;;;;1.10;0.90;;;;;;;13.10;nan;100581.00;4990615;28;20185;-82
2024/01/24 01:32:43;;;;;;;2.88;0.77;;;;;;;13.11;nan;100569.50;4992148;28;20232;-83
2024/01/24 01:35:13;;;;;;;1.90;0.80;;;;;;;13.12;nan;100568.53;4990870;28;20206;-83
2024/01/24 01:37:45;;;;;;;0.98;0.80;;;;;;;13.13;nan;100558.88;4990933;28;20448;-83
2024/01/24 01:40:14;;;;;;;0.80;0.80;;;;;;;13.16;nan;100562.16;4998268;28;20190;-82
2024/01/24 01:42:50;;;;;;;1.30;1.20;;;;;;;13.19;nan;100545.31;4988694;28;20231;-82
2024/01/24 01:45:16;;;;;;;1.83;1.10;;;;;;;13.19;nan;100550.59;4987717;28;20645;-84
2024/01/24 01:47:43;;;;;;;1.20;0.90;;;;;;;13.21;nan;100551.34;4989702;28;20216;-83
2024/01/24 01:50:14;;;;;;;2.63;0.93;;;;;;;13.22;nan;100543.31;4987689;28;20203;-81
2024/01/24 01:52:40;;;;;;;1.35;0.95;;;;;;;13.20;nan;100537.28;4975563;28;20201;-82
2024/01/24 01:55:11;;;;;;;4.90;1.13;;;;;;;13.22;nan;100532.78;4988799;28;20231;-83
2024/01/24 01:57:42;;;;;;;1.17;0.80;;;;;;;13.21;nan;100530.25;4989080;28;20214;-83
2024/01/24 02:00:10;;;;;;;1.08;0.70;;;;;;;13.19;nan;100535.59;4973073;28;20203;-83
2024/01/24 02:02:46;;;;;;;2.45;0.90;;;;;;;13.22;nan;100545.97;4988502;28;20204;-83
2024/01/24 02:05:12;;;;;;;2.72;0.95;;;;;;;13.20;nan;100552.28;4992464;28;20210;-82
2024/01/24 02:07:37;;;;;;;2.97;1.20;;;;;;;13.19;nan;100550.59;4986363;28;20211;-83
2024/01/24 02:10:03;;;;;;;3.60;1.23;;;;;;;13.17;nan;100563.00;4986160;28;20477;-81
2024/01/24 02:12:29;;;;;;;1.93;1.30;;;;;;;13.15;nan;100555.19;4982978;28;20207;-82
2024/01/24 02:14:55;;;;;;;2.17;1.00;;;;;;;13.18;nan;100549.75;4985322;28;20938;-83
2024/01/24 02:17:24;;;;;;;1.60;1.13;;;;;;;13.16;nan;100561.31;4987084;28;20474;-83
2024/01/24 02:19:52;;;;;;;4.30;0.80;;;;;;;13.19;nan;100548.78;4985292;28;20215;-81
2024/01/24 02:22:18;;;;;;;1.55;0.90;;;;;;;13.20;nan;100560.19;4984024;28;21251;-81
2024/01/24 02:24:44;;;;;;;1.33;0.80;;;;;;;13.21;nan;100546.06;4981570;28;20220;-82
2024/01/24 02:27:10;;;;;;;2.60;1.00;;;;;;;13.21;nan;100527.59;4985942;28;20195;-81
2024/01/24 02:29:36;;;;;;;4.60;1.13;;;;;;;13.19;nan;100524.22;4984418;28;20210;-81
2024/01/24 02:32:01;;;;;;;2.50;1.23;;;;;;;13.13;nan;100528.06;4978997;28;20483;-80
2024/01/24 02:34:27;;;;;;;1.30;0.90;;;;;;;13.17;nan;100528.72;4981886;28;21100;-81
2024/01/24 02:36:53;;;;;;;5.65;1.88;;;;;;;13.16;nan;100532.31;4984251;28;20204;-81
2024/01/24 02:39:25;;;;;;;2.88;1.20;;;;;;;13.16;nan;100546.34;4987077;28;20567;-81
2024/01/24 02:41:57;;;;;;;3.15;1.60;;;;;;;13.14;nan;100542.94;4982129;28;20196;-81
2024/01/24 02:44:23;;;;;;;2.08;1.00;;;;;;;13.18;nan;100546.25;4980137;28;20205;-80
2024/01/24 02:46:48;;;;;;;3.17;1.03;;;;;;;13.18;nan;100535.72;4984381;28;20235;-82
2024/01/24 02:49:14;;;;;;;1.97;0.80;;;;;;;13.17;nan;100540.09;4985238;28;20205;-81
2024/01/24 02:51:40;;;;;;;4.00;1.27;;;;;;;13.15;nan;100528.81;4978216;28;20459;-82
2024/01/24 02:54:06;;;;;;;2.30;0.90;;;;;;;13.17;nan;100526.91;4976853;28;20275;-80
2024/01/24 02:56:33;;;;;;;1.10;0.90;;;;;;;13.18;nan;100523.38;4976094;28;20232;-81
2024/01/24 02:59:05;;;;;;;2.15;1.00;;;;;;;13.16;nan;100527.88;4979376;28;20208;-81
2024/01/24 03:01:30;;;;;;;1.45;0.95;;;;;;;13.15;nan;100535.88;4976753;28;20658;-80
2024/01/24 03:03:56;;;;;;;1.23;0.87;;;;;;;13.11;nan;100526.44;4977689;28;20274;-80
2024/01/24 03:06:22;;;;;;;1.90;0.80;;;;;;;13.12;nan;100538.69;4974669;28;20214;-80
2024/01/24 03:08:53;;;;;;;1.60;1.00;;;;;;;13.11;nan;100534.38;4975561;28;20452;-80
2024/01/24 03:11:19;;;;;;;1.80;0.93;;;;;;;13.11;nan;100535.22;4977078;28;20289;-81
2024/01/24 03:13:45;;;;;;;4.80;1.20;;;;;;;13.09;nan;100528.31;4982749;28;20270;-80
2024/01/24 03:16:10;;;;;;;1.83;1.27;;;;;;;13.08;nan;100519.56;4980854;28;20597;-81
2024/01/24 03:18:37;;;;;;;1.40;0.80;;;;;;;13.06;nan;100527.56;4978284;28;20204;-82
2024/01/24 03:21:05;;;;;;;1.80;0.90;;;;;;;13.04;nan;100529.47;4980558;28;20303;-81
2024/01/24 03:23:31;;;;;;;1.65;0.80;;;;;;;12.99;nan;100539.44;4981762;28;20221;-81
2024/01/24 03:25:57;;;;;;;1.90;1.00;;;;;;;12.97;nan;100535.19;4977580;28;20760;-81
2024/01/24 03:28:23;;;;;;;2.88;1.05;;;;;;;12.93;nan;100549.47;4981450;28;20472;-81
2024/01/24 03:30:48;;;;;;;1.43;0.93;;;;;;;12.92;nan;100543.34;4978366;28;20256;-80
2024/01/24 03:33:13;;;;;;;3.73;1.23;;;;;;;12.87;nan;100542.78;4981434;28;20196;-80
2024/01/24 03:35:39;;;;;;;2.53;1.17;;;;;;;12.86;nan;100540.25;4979600;28;20702;-80
2024/01/24 03:38:17;;;;;;;2.73;1.10;;;;;;;12.84;nan;100543.78;4980471;28;20440;-80
2024/01/24 03:40:42;;;;;;;1.73;1.05;;;;;;;12.79;nan;100550.28;4978387;28;21702;-79
2024/01/24 03:43:10;;;;;;;2.70;1.20;;;;;;;12.81;nan;100558.94;4973913;28;20229;-79
2024/01/24 03:45:36;;;;;;;5.25;1.10;;;;;;;12.80;nan;100565.19;4973455;28;20218;-79
2024/01/24 03:48:03;;;;;;;1.38;0.95;;;;;;;12.78;nan;100567.03;4980559;28;20228;-83
2024/01/24 03:50:33;;;;;;;2.65;0.90;;;;;;;12.75;nan;100568.06;4987544;28;20205;-82
2024/01/24 03:53:03;;;;;;;3.28;1.33;;;;;;;12.70;nan;100577.19;4986305;28;20218;-82
2024/01/24 03:55:32;;;;;;;2.22;1.23;;;;;;;12.73;nan;100575.22;4985483;28;20228;-82
2024/01/24 03:57:57;;;;;;;1.45;0.90;;;;;;;12.73;nan;100579.63;4986432;28;20345;-81
2024/01/24 04:00:24;;;;;;;1.30;0.73;;;;;;;12.70;nan;100578.03;4979713;28;20194;-81
2024/01/24 04:02:50;;;;;;;2.63;1.00;;;;;;;12.72;nan;100568.25;4982042;28;20210;-82
2024/01/24 04:05:16;;;;;;;1.30;1.10;;;;;;;12.73;nan;100569.09;4982013;28;20217;-82
2024/01/24 04:07:42;;;;;;;2.13;1.33;;;;;;;12.76;nan;100572.38;4984261;28;20468;-82
2024/01/24 04:10:08;;;;;;;1.90;0.97;;;;;;;12.78;nan;100567.88;4982434;28;20547;-83
2024/01/24 04:12:37;;;;;;;4.45;1.95;;;;;;;12.81;nan;100566.88;4985079;28;20209;-83
2024/01/24 04:15:03;;;;;;;3.38;1.00;;;;;;;12.81;nan;100558.94;4982033;28;20204;-82
2024/01/24 04:17:28;;;;;;;4.80;1.00;;;;;;;12.83;nan;100588.72;4984837;28;20268;-82
2024/01/24 04:19:54;;;;;;;2.07;0.90;;;;;;;12.90;nan;100578.66;4980237;28;21511;-82
2024/01/24 04:22:26;;;;;;;3.33;0.90;;;;;;;12.90;nan;100571.59;4985862;28;20212;-82
2024/01/24 04:24:52;;;;;;;1.52;1.00;;;;;;;12.95;nan;100561.63;4985413;28;20295;-82
2024/01/24 04:27:18;;;;;;;2.88;1.42;;;;;;;12.98;nan;100566.72;4987631;28;20545;-82
2024/01/24 04:29:43;;;;;;;3.43;0.90;;;;;;;12.97;nan;100572.94;4985888;28;20299;-82
2024/01/24 04:32:09;;;;;;;2.27;1.50;;;;;;;12.98;nan;100587.81;4988564;28;20444;-83
2024/01/24 04:34:47;;;;;;;3.53;1.48;;;;;;;13.03;nan;100585.75;4985984;28;20191;-83
2024/01/24 04:37:19;;;;;;;4.15;1.67;;;;;;;13.06;nan;100595.28;4974682;28;20801;-83
2024/01/24 04:39:45;;;;;;;1.77;0.90;;;;;;;13.08;nan;100598.69;4985536;28;20232;-82
2024/01/24 04:42:16;;;;;;;2.13;1.40;;;;;;;13.11;nan;100592.41;4985849;28;20515;-81
2024/01/24 04:44:49;;;;;;;5.00;1.02;;;;;;;13.15;nan;100575.44;4983674;28;20499;-82
2024/01/24 04:47:25;;;;;;;3.38;1.65;;;;;;;13.15;nan;100594.78;4995519;28;20204;-82
2024/01/24 04:49:54;;;;;;;3.00;1.00;;;;;;;13.19;nan;100595.44;4984125;28;20225;-82
2024/01/24 04:52:19;;;;;;;5.40;1.40;;;;;;;13.23;nan;100589.03;4982620;28;20212;-83
2024/01/24 04:54:45;;;;;;;1.00;0.80;;;;;;;13.28;nan;100616.91;4980739;28;20205;-82
2024/01/24 04:57:11;;;;;;;2.30;1.00;;;;;;;13.32;nan;100614.91;4975574;28;20202;-81
2024/01/24 04:59:36;;;;;;;3.40;0.93;;;;;;;13.33;nan;100613.97;4975150;28;20210;-82
2024/01/24 05:02:05;;;;;;;4.83;1.47;;;;;;;13.34;nan;100623.59;4980718;28;20233;-81
2024/01/24 05:04:31;;;;;;;4.40;0.82;;;;;;;13.34;nan;100620.97;4981678;28;20251;-81
2024/01/24 05:06:57;;;;;;;1.43;1.00;;;;;;;13.35;nan;100649.03;4975303;28;20224;-81
2024/01/24 05:09:22;;;;;;;2.90;1.50;;;;;;;13.41;nan;100640.75;4979375;28;20440;-81
2024/01/24 05:11:51;;;;;;;1.30;1.00;;;;;;;13.44;nan;100645.00;4982206;28;20288;-81
2024/01/24 05:14:16;;;;;;;1.52;1.08;;;;;;;13.44;nan;100647.63;4978505;28;20204;-81
2024/01/24 05:16:43;;;;;;;1.10;0.80;;;;;;;13.45;nan;100649.34;4978453;28;20224;-81
2024/01/24 05:19:08;;;;;;;2.33;0.80;;;;;;;13.49;nan;100645.56;4975871;28;20227;-81
2024/01/24 05:21:43;;;;;;;6.67;1.10;;;;;;;13.54;nan;100655.88;4977237;28;20220;-81
2024/01/24 05:24:10;;;;;;;2.40;1.05;;;;;;;13.53;nan;100655.03;4978764;28;20386;-83
2024/01/24 05:26:36;;;;;;;2.03;1.10;;;;;;;13.56;nan;100660.13;4978756;28;20220;-83
2024/01/24 05:29:06;;;;;;;1.73;1.27;;;;;;;13.60;nan;100655.50;4978161;28;20259;-82
2024/01/24 05:31:36;;;;;;;1.88;0.80;;;;;;;13.61;nan;100662.47;4980329;28;20204;-82
2024/01/24 05:34:02;;;;;;;2.25;1.02;;;;;;;13.65;nan;100666.63;4987210;28;20222;-82
2024/01/24 05:36:27;;;;;;;1.50;1.00;;;;;;;13.67;nan;100675.31;4979076;28;20440;-82
2024/01/24 05:38:53;;;;;;;2.00;0.90;;;;;;;13.70;nan;100669.84;4974576;28;21346;-82
2024/01/24 05:41:19;;;;;;;2.50;1.10;;;;;;;13.68;nan;100684.94;4977856;28;20302;-82
2024/01/24 05:43:45;;;;;;;1.27;0.90;;;;;;;13.69;nan;100690.13;4975397;28;20217;-82
2024/01/24 05:46:11;;;;;;;4.43;1.10;;;;;;;13.67;nan;100680.59;4976133;28;20212;-82
2024/01/24 05:48:39;;;;;;;3.53;0.90;;;;;;;13.69;nan;100670.78;4973029;28;20197;-82
2024/01/24 05:51:08;;;;;;;2.15;1.00;;;;;;;13.68;nan;100680.50;4972164;28;20471;-83
2024/01/24 05:53:39;;;;;;;1.85;0.98;;;;;;;13.68;nan;100672.56;4975538;28;20197;-83
2024/01/24 05:56:05;;;;;;;1.33;0.80;;;;;;;13.63;nan;100682.56;4967006;28;20896;-80
2024/01/24 05:58:30;;;;;;;4.23;1.10;;;;;;;13.63;nan;100681.72;4973192;28;20201;-80
2024/01/24 06:00:56;;;;;;;2.83;0.93;;;;;;;13.62;nan;100672.94;4968143;28;20415;-80
2024/01/24 06:03:22;;;;;;;1.30;1.00;;;;;;;13.62;nan;100680.88;4975500;28;20216;-77
2024/01/24 06:05:48;;;;;;;2.23;0.80;;;;;;;13.58;nan;100666.13;4974273;28;20675;-80
2024/01/24 06:08:17;;;;;;;1.70;1.15;;;;;;;13.61;nan;100676.53;4976344;28;20502;-80
2024/01/24 06:10:43;;;;;;;2.92;1.20;;;;;;;13.62;nan;100665.03;4975911;28;20204;-81
2024/01/24 06:13:09;;;;;;;2.15;0.98;;;;;;;13.60;nan;100668.69;4981228;28;20252;-81
2024/01/24 06:15:35;;;;;;;1.30;0.98;;;;;;;13.56;nan;100659.28;4978186;28;20209;-81
2024/01/24 06:18:00;;;;;;;1.53;1.00;;;;;;;13.55;nan;100650.47;4979202;28;20280;-82
2024/01/24 06:20:27;;;;;;;0.80;0.80;;;;;;;13.56;nan;100661.91;4978407;28;20219;-81
2024/01/24 06:22:56;;;;;;;2.67;0.80;;;;;;;13.57;nan;100653.06;4984158;28;20975;-82
2024/01/24 06:25:21;;;;;;;1.30;0.90;;;;;;;13.60;nan;100652.88;4979994;28;20224;-81
2024/01/24 06:27:48;;;;;;;1.77;0.90;;;;;;;13.60;nan;100653.72;4981116;28;20212;-82
2024/01/24 06:30:17;;;;;;;1.40;1.00;;;;;;;13.61;nan;100659.81;4983481;28;20219;-81
2024/01/24 06:32:42;;;;;;;1.10;0.90;;;;;;;13.61;nan;100659.81;4984098;28;21600;-81
2024/01/24 06:35:08;;;;;;;1.73;1.03;;;;;;;13.57;nan;100642.50;4983918;28;20235;-81
2024/01/24 06:37:36;;;;;;;1.70;0.70;;;;;;;13.56;nan;100652.22;4982009;28;20510;-81
2024/01/24 06:40:03;;;;;;;2.95;0.85;;;;;;;13.55;nan;100644.38;4980499;28;20653;-81
2024/01/24 06:42:29;;;;;;;1.98;1.00;;;;;;;13.54;nan;100655.88;4978270;28;20216;-81
2024/01/24 06:44:55;;;;;;;1.13;1.05;;;;;;;13.56;nan;100646.09;4979396;28;20219;-81
2024/01/24 06:47:21;;;;;;;3.10;0.90;;;;;;;13.54;nan;100640.03;4979942;28;20271;-81
2024/01/24 06:49:46;;;;;;;2.93;1.23;;;;;;;13.48;nan;100655.28;4985049;28;20211;-82
2024/01/24 06:52:12;;;;;;;1.27;0.97;;;;;;;13.44;nan;100648.47;4982967;28;20206;-81
2024/01/24 06:54:37;;;;;;;1.77;0.70;;;;;;;13.42;nan;100655.66;4982610;28;20244;-81
2024/01/24 06:57:03;;;;;;;1.33;0.90;;;;;;;13.39;nan;100650.53;4987388;22;20229;-82
2024/01/24 06:59:31;;;;;;;2.83;0.83;;;;;;;13.34;nan;100649.09;4923174;28;20212;-80
2024/01/24 07:01:57;;;;;;;1.75;1.02;;;;;;;13.28;nan;100632.72;4950237;28;20529;-79
2024/01/24 07:04:23;;;;;;;1.40;0.75;;;;;;;13.28;nan;100631.84;4950461;28;20244;-80
2024/01/24 07:06:50;;;;;;;1.80;0.73;;;;;;;13.27;nan;100627.53;4950396;28;20311;-79
2024/01/24 07:09:15;;;;;;;2.60;0.90;;;;;;;13.31;nan;100639.59;4950355;28;21724;-79
2024/01/24 07:11:41;;;;;;;1.27;0.90;;;;;;;13.28;nan;100631.84;4950650;28;20241;-79
2024/01/24 07:14:07;;;;;;;1.00;0.80;;;;;;;13.29;nan;100646.75;4955297;28;20213;-81
2024/01/24 07:16:32;;;;;;;1.23;1.13;;;;;;;13.27;nan;100641.56;4953440;28;20589;-79
2024/01/24 07:18:57;;;;;;;1.03;0.80;;;;;;;13.27;nan;100646.84;4955959;28;20266;-80
2024/01/24 07:21:24;;;;;;;1.07;0.87;;;;;;;13.28;nan;100642.41;4953541;28;20332;-79
2024/01/24 07:23:49;;;;;;;1.13;0.85;;;;;;;13.28;nan;100642.41;4953136;28;20232;-82
2024/01/24 07:26:15;;;;;;;0.87;0.80;;;;;;;13.30;nan;100645.81;4951154;28;20315;-80
2024/01/24 07:28:41;;;;;;;1.00;0.70;;;;;;;13.31;nan;100649.28;4953530;28;20279;-82
2024/01/24 07:31:06;;;;;;;1.00;0.80;;;;;;;13.25;nan;100663.66;4952392;28;20291;-80
2024/01/24 07:33:31;;;;;;;2.80;2.60;;;;;;;13.26;nan;100652.22;4954317;28;20302;-81
2024/01/24 07:35:57;;;;;;;1.27;0.80;;;;;;;13.23;nan;100665.53;4954062;28;20220;-82
2024/01/24 07:38:23;;;;;;;1.43;0.90;;;;;;;13.25;nan;100676.84;4954635;28;20990;-79
2024/01/24 07:40:48;;;;;;;3.13;1.30;;;;;;;13.26;nan;100671.53;4953027;28;20596;-80
2024/01/24 07:43:14;;;;;;;0.87;0.83;;;;;;;13.26;nan;100657.50;4951909;28;20487;-82
2024/01/24 07:45:39;;;;;;;3.30;1.00;;;;;;;13.28;nan;100650.31;4952703;28;20228;-82
2024/01/24 07:48:05;;;;;;;1.70;0.90;;;;;;;13.25;nan;100664.50;4951752;28;20311;-83
2024/01/24 07:50:31;;;;;;;3.90;1.08;;;;;;;13.28;nan;100664.38;4953000;28;20209;-83
2024/01/24 07:52:57;;;;;;;3.83;0.93;;;;;;;13.30;nan;100659.00;4951159;28;20763;-80
2024/01/24 07:55:22;;;;;;;1.00;0.60;;;;;;;13.27;nan;100653.91;4949278;28;20332;-82
2024/01/24 07:57:48;;;;;;;1.03;0.70;;;;;;;13.32;nan;100667.69;4948762;28;20465;-80
2024/01/24 08:00:16;;;;;;;2.50;0.70;;;;;;;13.27;nan;100661.81;4950046;28;20586;-80
2024/01/24 08:02:45;;;;;;;1.55;0.70;;;;;;;13.28;nan;100655.59;4950071;28;20484;-81
2024/01/24 08:05:12;;;;;;;1.65;0.70;;;;;;;13.31;nan;100657.22;4950443;28;20225;-82
2024/01/24 08:07:40;;;;;;;2.47;1.10;;;;;;;13.27;nan;100669.75;4951375;28;20480;-79
2024/01/24 08:10:06;;;;;;;0.90;0.80;;;;;;;13.26;nan;100676.81;4950639;28;20245;-80
2024/01/24 08:12:31;;;;;;;0.80;0.70;;;;;;;13.30;nan;100682.75;4949897;28;20300;-83
2024/01/24 08:14:57;;;;;;;0.80;0.80;;;;;;;13.31;nan;100684.44;4952169;28;20578;-81
2024/01/24 08:17:22;;;;;;;0.70;0.60;;;;;;;13.31;nan;100689.72;4949673;28;20219;-80
2024/01/24 08:19:48;;;;;;;1.33;0.63;;;;;;;13.30;nan;100693.31;4952466;28;20252;-81
2024/01/24 08:22:14;;;;;;;2.03;0.60;;;;;;;13.32;nan;100686.16;4948866;28;20227;-79
2024/01/24 08:24:39;;;;;;;1.87;0.90;;;;;;;13.29;nan;100699.53;4950799;28;20231;-80
2024/01/24 08:27:05;;;;;;;1.10;0.70;;;;;;;13.28;nan;100689.91;4948302;28;20233;-83
2024/01/24 08:29:30;;;;;;;1.23;0.70;;;;;;;13.29;nan;100686.34;4950024;28;21633;-79
2024/01/24 08:31:55;;;;;;;0.60;0.60;;;;;;;13.23;nan;100689.28;4950528;28;20290;-80
2024/01/24 08:34:22;;;;;;;1.73;1.63;;;;;;;13.21;nan;100680.63;4952296;28;20208;-82
2024/01/24 08:36:47;;;;;;;1.25;0.60;;;;;;;13.19;nan;100671.94;4950394;28;20251;-83
2024/01/24 08:39:14;;;;;;;2.47;1.38;;;;;;;13.23;nan;100681.38;4945706;28;21208;-80
2024/01/24 08:41:40;;;;;;;0.93;0.70;;;;;;;13.22;nan;100663.84;4950617;28;20248;-82
2024/01/24 08:44:05;;;;;;;0.90;0.80;;;;;;;13.23;nan;100671.69;4949611;28;20221;-81
2024/01/24 08:46:31;;;;;;;0.80;0.70;;;;;;;13.25;nan;100648.69;4950974;28;20314;-83
2024/01/24 08:48:56;;;;;;;1.00;0.60;;;;;;;13.32;nan;100638.66;4950766;28;20296;-81
2024/01/24 08:51:24;;;;;;;3.50;1.00;;;;;;;13.33;nan;100636.88;4952086;28;20765;-80
2024/01/24 08:53:50;;;;;;;1.40;0.57;;;;;;;13.41;nan;100648.66;4949446;28;20209;-82
2024/01/24 08:56:15;;;;;;;0.83;0.70;;;;;;;13.44;nan;100651.13;4950876;28;20229;-83
2024/01/24 08:58:41;;;;;;;0.90;0.70;;;;;;;13.47;nan;100644.81;4950862;28;20989;-80
2024/01/24 09:01:06;;;;;;;1.57;1.47;;;;;;;13.54;nan;100640.03;4951375;28;20612;-81
2024/01/24 09:03:31;;;;;;;1.77;1.00;;;;;;;13.62;nan;100640.44;4953166;28;20197;-81
2024/01/24 09:05:57;;;;;;;0.90;0.60;;;;;;;13.66;nan;100637.53;4951684;28;20287;-83
2024/01/24 09:08:23;;;;;;;1.47;0.80;;;;;;;13.72;nan;100637.16;4948962;28;20252;-81
2024/01/24 09:10:48;;;;;;;1.00;0.80;;;;;;;13.78;nan;100646.47;4950094;28;20320;-82
2024/01/24 09:13:13;;;;;;;0.70;0.70;;;;;;;13.82;nan;100634.78;4950857;28;20208;-80
2024/01/24 09:15:39;;;;;;;1.13;0.80;;;;;;;13.89;nan;100643.19;4950615;28;20309;-80
2024/01/24 09:18:08;;;;;;;1.43;0.87;;;;;;;13.93;nan;100649.97;4951079;28;20214;-82
2024/01/24 09:20:33;;;;;;;1.15;0.60;;;;;;;13.94;nan;100652.53;4951837;28;21219;-83
2024/01/24 09:22:58;;;;;;;1.70;1.07;;;;;;;14.00;nan;100643.38;4948728;28;20212;-80
2024/01/24 09:25:24;;;;;;;3.20;0.70;;;;;;;14.03;nan;100661.69;4949316;28;20234;-82
2024/01/24 09:27:50;;;;;;;1.83;0.70;;;;;;;14.04;nan;100663.41;4951035;28;20674;-80
2024/01/24 09:30:15;;;;;;;5.23;0.70;;;;;;;14.11;nan;100667.34;4950129;28;20285;-79
2024/01/24 09:32:41;;;;;;;0.90;0.73;;;;;;;14.19;nan;100666.03;4951427;28;20252;-79
2024/01/24 09:35:06;;;;;;;2.83;0.80;;;;;;;14.21;nan;100686.13;4950734;28;20201;-82
2024/01/24 09:37:32;;;;;;;1.27;0.80;;;;;;;14.28;nan;100684.78;4950461;28;20521;-81
2024/01/24 09:39:57;;;;;;;1.03;0.80;;;;;;;14.33;nan;100692.44;4948322;28;21125;-81
2024/01/24 09:42:26;;;;;;;1.10;0.80;;;;;;;14.28;nan;100695.38;4947976;28;20316;-81
2024/01/24 09:44:53;;;;;;;0.80;0.80;;;;;;;14.26;nan;100693.78;4949093;28;20863;-82
2024/01/24 09:47:22;;;;;;;0.93;0.60;;;;;;;14.34;nan;100700.28;4947977;28;20208;-81
2024/01/24 09:49:48;;;;;;;1.08;0.80;;;;;;;14.32;nan;100681.03;4949831;28;20202;-79
2024/01/24 09:52:17;;;;;;;1.13;0.80;;;;;;;14.38;nan;100693.00;4948353;28;20206;-81
2024/01/24 09:54:44;;;;;;;6.45;0.90;;;;;;;14.39;nan;100682.34;4949873;28;20203;-81
2024/01/24 09:57:10;;;;;;;1.00;0.70;;;;;;;14.42;nan;100685.72;4949546;28;20252;-83
2024/01/24 09:59:36;;;;;;;0.60;0.50;;;;;;;14.39;nan;100685.00;4951726;28;20198;-81
2024/01/24 10:02:04;;;;;;;0.90;0.73;;;;;;;14.39;nan;100684.13;4948937;28;20288;-80
2024/01/24 10:04:36;;;;;;;2.28;0.60;;;;;;;14.44;nan;100694.41;4946795;28;20711;-80
2024/01/24 10:07:12;;;;;;;0.65;0.57;;;;;;;14.45;nan;100701.44;4949755;28;20312;-80
2024/01/24 10:09:38;;;;;;;1.10;0.63;;;;;;;14.44;nan;100712.94;4953460;28;20296;-79
2024/01/24 10:12:04;;;;;;;0.70;0.60;;;;;;;14.48;nan;100710.00;4949158;28;20297;-79
2024/01/24 10:14:30;;;;;;;0.80;0.70;;;;;;;14.51;nan;100719.53;4951232;28;20230;-80
2024/01/24 10:16:55;;;;;;;0.90;0.60;;;;;;;14.51;nan;100701.88;4950112;28;20473;-82
2024/01/24 10:19:24;;;;;;;1.07;0.87;;;;;;;14.49;nan;100697.63;4950661;28;21024;-79
2024/01/24 10:21:50;;;;;;;2.38;0.80;;;;;;;14.51;nan;100695.75;4951067;28;20240;-83
2024/01/24 10:24:16;;;;;;;1.00;0.70;;;;;;;14.52;nan;100702.72;4953129;28;20221;-80
2024/01/24 10:26:44;;;;;;;0.70;0.70;;;;;;;14.49;nan;100695.00;4950795;28;20271;-82
2024/01/24 10:29:11;;;;;;;1.55;0.70;;;;;;;14.51;nan;100701.88;4952666;28;21114;-79
2024/01/24 10:31:36;;;;;;;1.38;0.85;;;;;;;14.55;nan;100698.13;4950014;28;20564;-82
2024/01/24 10:34:03;;;;;;;0.90;0.63;;;;;;;14.53;nan;100691.25;4950481;28;20211;-80
2024/01/24 10:36:28;;;;;;;1.95;0.77;;;;;;;14.53;nan;100675.38;4948545;28;20224;-80
2024/01/24 10:39:00;;;;;;;1.00;0.70;;;;;;;14.57;nan;100692.75;4950692;28;20452;-81
2024/01/24 10:41:30;;;;;;;0.80;0.70;;;;;;;14.52;nan;100692.16;4951232;28;20209;-82
2024/01/24 10:43:57;;;;;;;0.75;0.63;;;;;;;14.56;nan;100701.63;4952792;28;20229;-80
2024/01/24 10:46:23;;;;;;;0.70;0.60;;;;;;;14.59;nan;100710.22;4954390;28;20230;-81
2024/01/24 10:48:50;;;;;;;2.50;0.70;;;;;;;14.59;nan;100706.72;4953442;28;20215;-81
2024/01/24 10:51:18;;;;;;;0.75;0.60;;;;;;;14.59;nan;100714.66;4952625;28;20481;-81
2024/01/24 10:53:45;;;;;;;0.80;0.70;;;;;;;14.57;nan;100698.03;4952059;28;20245;-83
2024/01/24 10:56:13;;;;;;;0.88;0.65;;;;;;;14.54;nan;100692.94;4952947;28;20231;-80
2024/01/24 10:58:40;;;;;;;0.77;0.65;;;;;;;14.54;nan;100671.78;4954205;28;20212;-80
2024/01/24 11:01:06;;;;;;;1.83;0.70;;;;;;;14.51;nan;100677.25;4953228;28;20215;-81
2024/01/24 11:03:32;;;;;;;0.80;0.60;;;;;;;14.58;nan;100683.84;4953871;28;20233;-80
2024/01/24 11:06:01;;;;;;;0.70;0.60;;;;;;;14.60;nan;100693.38;4955686;28;20475;-80
2024/01/24 11:08:36;;;;;;;1.00;0.80;;;;;;;14.57;nan;100696.22;4953598;28;21576;-81
2024/01/24 11:11:07;;;;;;;2.05;0.68;;;;;;;14.51;nan;100693.94;4953409;28;20230;-81
2024/01/24 11:13:37;;;;;;;2.80;0.80;;;;;;;14.53;nan;100700.03;4951558;28;21039;-82
2024/01/24 11:16:25;;;;;;;0.90;0.70;;;;;;;14.54;nan;100699.06;4956698;28;20227;-82
2024/01/24 11:18:51;;;;;;;2.35;0.80;;;;;;;14.54;nan;100685.84;4959684;28;20227;-83
2024/01/24 11:21:20;;;;;;;1.27;0.70;;;;;;;14.54;nan;100677.06;4961457;28;20300;-82
2024/01/24 11:23:48;;;;;;;0.90;0.80;;;;;;;14.51;nan;100679.88;4961864;28;20259;-82
2024/01/24 11:26:16;;;;;;;0.73;0.57;;;;;;;14.52;nan;100676.28;4962925;28;20292;-83
2024/01/24 11:28:42;;;;;;;1.20;0.77;;;;;;;14.56;nan;100665.47;4964170;28;20281;-81
2024/01/24 11:31:08;;;;;;;1.43;0.90;;;;;;;14.58;nan;100673.28;4962544;28;20353;-82
2024/01/24 11:33:33;;;;;;;1.23;0.83;;;;;;;14.68;nan;100673.56;4965057;28;20217;-82
2024/01/24 11:36:03;;;;;;;0.80;0.70;;;;;;;14.63;nan;100663.25;4966641;28;20458;-80
2024/01/24 11:38:28;;;;;;;1.00;0.70;;;;;;;14.71;nan;100668.91;4965688;28;20449;-81